createdAt,value
2022-11-23T00:01:09.699Z,96
2022-11-23T00:02:25.018Z,96
2022-11-23T00:03:40.343Z,96.1
2022-11-23T00:04:55.636Z,96.2
2022-11-23T00:06:11.936Z,96.2
2022-11-23T00:07:28.224Z,96.3
2022-11-23T00:08:44.516Z,96.3
2022-11-23T00:10:00.819Z,96.4
2022-11-23T00:11:17.112Z,96.3
2022-11-23T00:12:33.407Z,96.1
2022-11-23T00:13:49.710Z,96
2022-11-23T00:15:06.004Z,96
2022-11-23T00:16:22.286Z,95.9
2022-11-23T00:17:38.595Z,95.8
2022-11-23T00:18:54.878Z,95.7
2022-11-23T00:20:11.184Z,95.7
2022-11-23T00:21:26.494Z,95.6
2022-11-23T00:22:42.793Z,95.7
2022-11-23T00:23:59.080Z,95.7
2022-11-23T00:25:15.369Z,95.6
2022-11-23T00:26:31.683Z,95.6
2022-11-23T00:27:47.960Z,95.5
2022-11-23T00:29:04.250Z,95.4
2022-11-23T00:30:19.573Z,95.4
2022-11-23T00:31:34.892Z,95.4
2022-11-23T00:32:50.203Z,95.3
2022-11-23T00:34:05.510Z,95.3
2022-11-23T00:35:21.809Z,95.4
2022-11-23T00:36:38.104Z,95.4
2022-11-23T00:37:54.400Z,95.4
2022-11-23T00:39:10.692Z,95.3
2022-11-23T00:40:26.990Z,95.3
2022-11-23T00:41:43.272Z,95.4
2022-11-23T00:42:59.571Z,95.3
2022-11-23T00:44:15.875Z,95.4
2022-11-23T00:45:32.159Z,95.2
2022-11-23T00:46:48.466Z,95
2022-11-23T00:48:04.753Z,95
2022-11-23T00:49:21.045Z,95
2022-11-23T00:50:36.352Z,95
2022-11-23T00:51:52.648Z,95
2022-11-23T00:53:08.942Z,95.1
2022-11-23T00:54:25.245Z,95.1
2022-11-23T00:55:41.548Z,95.1
2022-11-23T00:56:57.835Z,95.1
2022-11-23T00:58:14.121Z,95
2022-11-23T00:59:29.443Z,95
2022-11-23T01:00:44.760Z,95
2022-11-23T01:02:01.052Z,95
2022-11-23T01:03:17.354Z,95
2022-11-23T01:04:33.633Z,94.9
2022-11-23T01:05:49.929Z,95
2022-11-23T01:07:06.235Z,95
2022-11-23T01:08:22.517Z,95.1
2022-11-23T01:09:38.817Z,95
2022-11-23T01:10:55.112Z,95
2022-11-23T01:12:11.418Z,95
2022-11-23T01:13:27.712Z,94.9
2022-11-23T01:14:43.996Z,95
2022-11-23T01:16:00.288Z,95
2022-11-23T01:17:15.598Z,94.9
2022-11-23T01:18:31.896Z,94.7
2022-11-23T01:19:48.185Z,94.7
2022-11-23T01:21:04.481Z,94.7
2022-11-23T01:22:20.784Z,94.7
2022-11-23T01:23:37.076Z,94.7
2022-11-23T01:24:53.373Z,94.8
2022-11-23T01:26:08.683Z,94.7
2022-11-23T01:27:23.993Z,94.8
2022-11-23T01:28:40.297Z,94.7
2022-11-23T01:29:56.597Z,94.7
2022-11-23T01:31:12.877Z,94.7
2022-11-23T01:32:29.173Z,94.7
2022-11-23T01:33:45.465Z,94.7
2022-11-23T01:35:01.764Z,94.6
2022-11-23T01:36:18.058Z,94.5
2022-11-23T01:37:34.366Z,94.5
2022-11-23T01:38:50.646Z,94.4
2022-11-23T01:40:06.946Z,94.4
2022-11-23T01:41:23.240Z,94.4
2022-11-23T01:42:39.545Z,94.3
2022-11-23T01:43:54.841Z,94.4
2022-11-23T01:45:11.150Z,94.3
2022-11-23T01:46:27.442Z,94.1
2022-11-23T01:47:43.733Z,94
2022-11-23T01:49:00.026Z,94
2022-11-23T01:50:16.326Z,94
2022-11-23T01:51:32.613Z,93.8
2022-11-23T01:52:47.932Z,93.8
2022-11-23T01:54:03.235Z,93.6
2022-11-23T01:55:19.539Z,93.8
2022-11-23T01:56:34.855Z,93.8
2022-11-23T01:57:50.170Z,93.8
2022-11-23T01:59:05.472Z,93.8
2022-11-23T02:00:20.790Z,93.8
2022-11-23T02:01:37.082Z,93.8
2022-11-23T02:02:52.397Z,93.8
2022-11-23T02:04:07.713Z,93.6
2022-11-23T02:05:24.002Z,93.8
2022-11-23T02:06:40.296Z,93.5
2022-11-23T02:07:56.596Z,93.6
2022-11-23T02:09:12.886Z,93.5
2022-11-23T02:10:29.184Z,93.5
2022-11-23T02:11:45.476Z,93.5
2022-11-23T02:13:01.783Z,93.5
2022-11-23T02:14:18.063Z,93.6
2022-11-23T02:15:34.375Z,93.8
2022-11-23T02:16:50.672Z,93.6
2022-11-23T02:18:06.953Z,93.8
2022-11-23T02:19:23.240Z,93.8
2022-11-23T02:20:38.560Z,93.8
2022-11-23T02:21:54.867Z,93.6
2022-11-23T02:23:11.154Z,93.6
2022-11-23T02:24:27.439Z,93.5
2022-11-23T02:25:43.729Z,93.5
2022-11-23T02:27:00.031Z,93.4
2022-11-23T02:28:16.324Z,93.4
2022-11-23T02:29:31.637Z,93.5
2022-11-23T02:30:46.952Z,93.4
2022-11-23T02:32:02.274Z,93.4
2022-11-23T02:33:17.582Z,93.3
2022-11-23T02:34:33.868Z,93.4
2022-11-23T02:35:50.181Z,93.4
2022-11-23T02:37:06.461Z,93.4
2022-11-23T02:38:22.757Z,93.5
2022-11-23T02:39:39.055Z,93.4
2022-11-23T02:40:55.339Z,93.5
2022-11-23T02:42:11.648Z,93.5
2022-11-23T02:43:27.946Z,93.5
2022-11-23T02:44:44.234Z,93.5
2022-11-23T02:46:00.531Z,93.5
2022-11-23T02:47:16.813Z,93.6
2022-11-23T02:48:33.108Z,93.4
2022-11-23T02:49:48.432Z,93.5
2022-11-23T02:51:04.719Z,93.5
2022-11-23T02:52:21.015Z,93.6
2022-11-23T02:53:37.315Z,93.5
2022-11-23T02:54:53.614Z,93.5
2022-11-23T02:56:09.899Z,93.4
2022-11-23T02:57:26.192Z,93.2
2022-11-23T02:58:41.502Z,93.2
2022-11-23T02:59:56.820Z,93
2022-11-23T03:01:13.116Z,93.1
2022-11-23T03:02:29.404Z,93
2022-11-23T03:03:45.702Z,92.9
2022-11-23T03:05:02.009Z,92.9
2022-11-23T03:06:18.306Z,93
2022-11-23T03:07:34.599Z,93
2022-11-23T03:08:50.889Z,93
2022-11-23T03:10:07.176Z,93
2022-11-23T03:12:39.770Z,93.1
2022-11-23T03:13:56.059Z,93.1
2022-11-23T03:15:12.366Z,93.2
2022-11-23T03:16:27.661Z,93.2
2022-11-23T03:17:43.966Z,93.2
2022-11-23T03:19:00.255Z,93.3
2022-11-23T03:20:16.546Z,93.3
2022-11-23T03:21:32.844Z,93.3
2022-11-23T03:22:49.134Z,93.4
2022-11-23T03:24:05.444Z,93.3
2022-11-23T03:25:21.730Z,93.3
2022-11-23T03:26:37.055Z,93.3
2022-11-23T03:27:52.358Z,93.4
2022-11-23T03:29:07.686Z,93.3
2022-11-23T03:30:23.965Z,93.2
2022-11-23T03:31:40.267Z,93.2
2022-11-23T03:32:56.555Z,93.2
2022-11-23T03:34:12.857Z,93.3
2022-11-23T03:35:29.149Z,93.3
2022-11-23T03:36:45.448Z,93.3
2022-11-23T03:38:01.733Z,93.2
2022-11-23T03:39:18.041Z,93.3
2022-11-23T03:40:34.325Z,93.3
2022-11-23T03:41:50.614Z,93.1
2022-11-23T03:43:06.913Z,93
2022-11-23T03:44:23.203Z,93
2022-11-23T03:45:38.516Z,92.9
2022-11-23T03:46:54.817Z,92.9
2022-11-23T03:48:11.115Z,92.8
2022-11-23T03:49:27.397Z,92.7
2022-11-23T03:50:43.700Z,92.7
2022-11-23T03:51:59.987Z,92.7
2022-11-23T03:53:15.302Z,92.7
2022-11-23T03:54:30.619Z,92.8
2022-11-23T03:55:45.939Z,92.8
2022-11-23T03:57:01.250Z,92.9
2022-11-23T03:58:16.560Z,93
2022-11-23T03:59:31.873Z,93
2022-11-23T04:00:48.172Z,93.1
2022-11-23T04:02:04.457Z,93
2022-11-23T04:03:20.750Z,93.1
2022-11-23T04:04:37.051Z,93
2022-11-23T04:05:53.354Z,93.1
2022-11-23T04:07:09.636Z,93.1
2022-11-23T04:08:25.931Z,93
2022-11-23T04:09:42.230Z,92.9
2022-11-23T04:10:58.521Z,93
2022-11-23T04:12:14.827Z,93.1
2022-11-23T04:13:31.117Z,93.3
2022-11-23T04:14:47.404Z,93.3
2022-11-23T04:16:02.727Z,93.3
2022-11-23T04:17:19.012Z,93.4
2022-11-23T04:18:35.321Z,93.5
2022-11-23T04:19:51.599Z,93.5
2022-11-23T04:21:07.895Z,93.6
2022-11-23T04:22:24.183Z,93.7
2022-11-23T04:23:40.480Z,93.7
2022-11-23T04:24:55.805Z,93.8
2022-11-23T04:26:11.107Z,93.7
2022-11-23T04:27:26.426Z,93.8
2022-11-23T04:28:41.734Z,93.9
2022-11-23T04:29:58.042Z,93.8
2022-11-23T04:31:14.325Z,93.9
2022-11-23T04:32:30.624Z,93.9
2022-11-23T04:33:46.914Z,94
2022-11-23T04:35:03.217Z,94.1
2022-11-23T04:36:19.520Z,94.2
2022-11-23T04:37:35.794Z,94.1
2022-11-23T04:38:52.089Z,94.3
2022-11-23T04:40:08.391Z,94.3
2022-11-23T04:41:24.686Z,94.4
2022-11-23T04:42:40.980Z,94.4
2022-11-23T04:43:57.270Z,94.4
2022-11-23T04:45:12.597Z,94.4
2022-11-23T04:46:28.873Z,94.4
2022-11-23T04:47:45.183Z,94.5
2022-11-23T04:49:01.469Z,94.5
2022-11-23T04:50:17.760Z,94.6
2022-11-23T04:51:34.058Z,94.6
2022-11-23T04:52:50.352Z,94.5
2022-11-23T04:54:05.670Z,94.6
2022-11-23T04:55:20.981Z,94.6
2022-11-23T04:56:37.284Z,94.7
2022-11-23T04:57:53.571Z,94.7
2022-11-23T04:59:09.862Z,94.7
2022-11-23T05:00:26.157Z,94.7
2022-11-23T05:01:42.464Z,94.7
2022-11-23T05:02:58.747Z,94.8
2022-11-23T05:04:15.042Z,94.7
2022-11-23T05:05:31.330Z,94.8
2022-11-23T05:06:47.642Z,94.7
2022-11-23T05:08:03.935Z,95
2022-11-23T05:09:20.224Z,95
2022-11-23T05:10:36.516Z,95.1
2022-11-23T05:11:51.824Z,95
2022-11-23T05:13:08.120Z,95.3
2022-11-23T05:14:24.413Z,95.5
2022-11-23T05:15:40.710Z,95.5
2022-11-23T05:16:57.015Z,95.6
2022-11-23T05:18:13.312Z,95.7
2022-11-23T05:19:29.599Z,95.7
2022-11-23T05:20:44.911Z,95.7
2022-11-23T05:22:00.218Z,96
2022-11-23T05:23:16.519Z,95.9
2022-11-23T05:24:32.819Z,96
2022-11-23T05:25:49.100Z,96.1
2022-11-23T05:27:05.405Z,96.1
2022-11-23T05:28:21.697Z,96.1
2022-11-23T05:29:37.998Z,96
2022-11-23T05:30:54.279Z,95.9
2022-11-23T05:32:10.583Z,96
2022-11-23T05:33:26.869Z,96
2022-11-23T05:34:43.179Z,95.9
2022-11-23T05:35:59.466Z,96
2022-11-23T05:37:15.755Z,96.1
2022-11-23T05:38:31.068Z,96.3
2022-11-23T05:39:47.367Z,96.2
2022-11-23T05:41:03.662Z,96.2
2022-11-23T05:42:19.963Z,96.2
2022-11-23T05:43:36.246Z,96.3
2022-11-23T05:44:52.540Z,96.3
2022-11-23T05:46:08.834Z,96.3
2022-11-23T05:47:24.155Z,96.3
2022-11-23T05:48:39.000Z,96.4
2022-11-23T05:49:54.792Z,96.4
2022-11-23T05:51:10.084Z,96.3
2022-11-23T05:52:25.407Z,96.3
2022-11-23T05:53:40.716Z,96.3
2022-11-23T05:54:57.011Z,96.3
2022-11-23T05:56:13.314Z,96.5
2022-11-23T05:57:29.605Z,96.5
2022-11-23T05:58:45.900Z,96.6
2022-11-23T06:00:02.138Z,96.6
2022-11-23T06:01:18.436Z,96.6
2022-11-23T06:02:34.687Z,96.6
2022-11-23T06:03:50.919Z,96.6
2022-11-23T06:05:07.164Z,96.7
2022-11-23T06:06:23.406Z,96.6
2022-11-23T06:07:39.659Z,96.7
2022-11-23T06:08:55.901Z,96.7
2022-11-23T06:10:11.171Z,96.8
2022-11-23T06:12:43.650Z,96.8
2022-11-23T06:13:59.887Z,96.8
2022-11-23T06:15:16.129Z,96.8
2022-11-23T06:16:32.373Z,96.9
2022-11-23T06:17:48.606Z,96.8
2022-11-23T06:19:04.862Z,96.8
2022-11-23T06:20:20.120Z,96.8
2022-11-23T06:21:35.366Z,97
2022-11-23T06:22:50.634Z,97.1
2022-11-23T06:24:05.884Z,97.2
2022-11-23T06:25:22.141Z,97.2
2022-11-23T06:26:38.372Z,97.1
2022-11-23T06:27:54.626Z,97.1
2022-11-23T06:29:10.856Z,97.2
2022-11-23T06:30:27.102Z,97.1
2022-11-23T06:31:43.342Z,97
2022-11-23T06:32:59.573Z,97.1
2022-11-23T06:34:15.819Z,97
2022-11-23T06:35:32.055Z,96.9
2022-11-23T06:36:48.298Z,97
2022-11-23T06:38:04.547Z,97
2022-11-23T06:39:20.786Z,97.1
2022-11-23T06:40:36.040Z,97.1
2022-11-23T06:41:52.273Z,97.2
2022-11-23T06:43:08.526Z,97.1
2022-11-23T06:44:24.756Z,97
2022-11-23T06:45:40.997Z,96.9
2022-11-23T06:46:57.246Z,96.8
2022-11-23T06:48:13.479Z,96.8
2022-11-23T06:49:28.739Z,96.7
2022-11-23T06:50:43.996Z,96.7
2022-11-23T06:52:00.236Z,96.7
2022-11-23T06:53:16.479Z,96.6
2022-11-23T06:54:32.722Z,96.6
2022-11-23T06:55:48.974Z,96.5
2022-11-23T06:57:05.205Z,96.5
2022-11-23T06:58:21.453Z,96.5
2022-11-23T06:59:37.680Z,96.5
2022-11-23T07:00:53.921Z,96.5
2022-11-23T07:02:10.166Z,96.3
2022-11-23T07:03:26.417Z,96.3
2022-11-23T07:04:42.661Z,96.2
2022-11-23T07:05:58.894Z,96
2022-11-23T07:07:14.150Z,95.9
2022-11-23T07:08:30.398Z,95.9
2022-11-23T07:09:46.627Z,95.9
2022-11-23T07:11:02.868Z,95.7
2022-11-23T07:12:19.118Z,95.6
2022-11-23T07:13:35.349Z,95.6
2022-11-23T07:14:51.601Z,95.5
2022-11-23T07:16:06.856Z,95.5
2022-11-23T07:17:22.115Z,95.4
2022-11-23T07:18:37.368Z,95.4
2022-11-23T07:19:52.637Z,95.4
2022-11-23T07:21:08.875Z,95.3
2022-11-23T07:22:25.105Z,95.3
2022-11-23T07:23:41.354Z,95.3
2022-11-23T07:24:57.605Z,95.1
2022-11-23T07:26:13.832Z,94.9
2022-11-23T07:27:30.077Z,94.9
2022-11-23T07:28:46.323Z,94.9
2022-11-23T07:30:02.552Z,94.8
2022-11-23T07:31:18.801Z,94.6
2022-11-23T07:32:35.046Z,94.5
2022-11-23T07:33:51.274Z,94.4
2022-11-23T07:35:07.513Z,94.3
2022-11-23T07:36:22.770Z,94.3
2022-11-23T07:37:39.027Z,94.2
2022-11-23T07:38:55.253Z,94.2
2022-11-23T07:40:11.498Z,94.1
2022-11-23T07:41:27.729Z,94
2022-11-23T07:42:43.984Z,93.8
2022-11-23T07:43:59.244Z,93.6
2022-11-23T07:45:14.508Z,93.6
2022-11-23T07:46:29.771Z,93.6
2022-11-23T07:47:45.016Z,93.6
2022-11-23T07:49:00.276Z,93.5
2022-11-23T07:50:16.519Z,93.4
2022-11-23T07:51:32.769Z,93.6
2022-11-23T07:52:48.994Z,93.6
2022-11-23T07:54:05.247Z,93.5
2022-11-23T07:55:21.475Z,93.5
2022-11-23T07:56:37.725Z,93.6
2022-11-23T07:57:53.967Z,93.6
2022-11-23T07:59:10.215Z,93.7
2022-11-23T08:00:26.448Z,93.6
2022-11-23T08:01:42.695Z,93
2022-11-23T08:02:58.936Z,92.8
2022-11-23T08:04:15.169Z,92.8
2022-11-23T08:05:30.416Z,92.5
2022-11-23T08:06:46.661Z,92.2
2022-11-23T08:08:02.914Z,92.3
2022-11-23T08:09:19.146Z,92
2022-11-23T08:10:35.395Z,91.8
2022-11-23T08:11:51.621Z,91.8
2022-11-23T08:13:07.863Z,91.7
2022-11-23T08:14:23.128Z,91.3
2022-11-23T08:15:38.380Z,91.2
2022-11-23T08:16:54.631Z,90.8
2022-11-23T08:18:10.875Z,90.6
2022-11-23T08:19:27.115Z,90.7
2022-11-23T08:20:43.342Z,90.6
2022-11-23T08:21:59.582Z,90.7
2022-11-23T08:23:15.832Z,90.6
2022-11-23T08:24:32.076Z,90.7
2022-11-23T08:25:48.303Z,90.7
2022-11-23T08:27:04.551Z,90.9
2022-11-23T08:28:20.805Z,91
2022-11-23T08:29:37.031Z,91
2022-11-23T08:30:53.266Z,91.2
2022-11-23T08:32:08.542Z,91
2022-11-23T08:33:24.767Z,91
2022-11-23T08:34:41.015Z,91.2
2022-11-23T08:35:57.250Z,90.9
2022-11-23T08:37:13.490Z,90.7
2022-11-23T08:38:29.732Z,90.4
2022-11-23T08:39:45.973Z,90.3
2022-11-23T08:41:01.233Z,90.2
2022-11-23T08:42:16.492Z,90
2022-11-23T08:43:31.756Z,90
2022-11-23T08:44:47.004Z,89.7
2022-11-23T08:46:03.256Z,89.2
2022-11-23T08:47:19.493Z,89.2
2022-11-23T08:48:35.732Z,88.6
2022-11-23T08:49:51.964Z,88.3
2022-11-23T08:51:08.223Z,88
2022-11-23T08:52:24.465Z,87.7
2022-11-23T08:53:40.698Z,87.6
2022-11-23T08:54:56.937Z,87.3
2022-11-23T08:56:13.166Z,87.5
2022-11-23T08:57:29.410Z,87.3
2022-11-23T08:58:45.653Z,87.1
2022-11-23T09:00:01.892Z,86.6
2022-11-23T09:01:17.161Z,86.3
2022-11-23T09:02:33.398Z,86.1
2022-11-23T09:03:49.626Z,85.5
2022-11-23T09:05:05.865Z,85.3
2022-11-23T09:06:22.112Z,85.5
2022-11-23T09:07:38.351Z,86
2022-11-23T09:08:54.588Z,86.5
2022-11-23T09:10:09.856Z,85.8
2022-11-23T09:11:25.116Z,85.6
2022-11-23T09:12:41.349Z,85.3
2022-11-23T09:13:57.602Z,83.5
2022-11-23T09:15:13.829Z,82.2
2022-11-23T09:16:30.086Z,77.2
2022-11-23T09:17:46.326Z,73
2022-11-23T09:19:02.559Z,69.3
2022-11-23T09:20:18.788Z,67
2022-11-23T09:21:35.044Z,64.8
2022-11-23T09:22:51.278Z,65.8
2022-11-23T09:24:07.514Z,64
2022-11-23T09:25:23.764Z,61.7
2022-11-23T09:27:56.228Z,62.1
2022-11-23T09:29:11.496Z,62.6
2022-11-23T09:30:27.735Z,61.6
2022-11-23T09:31:43.982Z,61.9
2022-11-23T09:33:00.211Z,60.7
2022-11-23T09:34:16.453Z,64.3
2022-11-23T09:35:32.703Z,67.9
2022-11-23T09:36:48.925Z,69.9
2022-11-23T09:38:04.197Z,71.8
2022-11-23T09:39:19.446Z,69.5
2022-11-23T09:40:34.707Z,68.2
2022-11-23T09:43:06.202Z,62.9
2022-11-23T09:44:21.462Z,61.5
2022-11-23T09:45:36.729Z,61.8
2022-11-23T09:46:51.978Z,61.7
2022-11-23T09:48:07.252Z,63.2
2022-11-23T09:49:23.484Z,64.2
2022-11-23T09:50:39.712Z,65.5
2022-11-23T09:51:55.978Z,68.1
2022-11-23T09:53:12.192Z,67.9
2022-11-23T09:54:28.445Z,66.7
2022-11-23T09:55:44.687Z,68.5
2022-11-23T09:57:00.932Z,70.6
2022-11-23T09:58:17.165Z,69.7
2022-11-23T09:59:33.406Z,70.4
2022-11-23T10:00:49.652Z,69.9
2022-11-23T10:02:05.884Z,68.6
2022-11-23T10:03:22.112Z,68.3
2022-11-23T10:04:37.382Z,68.3
2022-11-23T10:05:53.623Z,69
2022-11-23T10:07:09.859Z,64.7
2022-11-23T10:08:26.099Z,64.4
2022-11-23T10:09:42.339Z,64.6
2022-11-23T10:10:58.578Z,64.8
2022-11-23T10:12:14.811Z,65.7
2022-11-23T10:13:30.086Z,67.4
2022-11-23T10:14:45.327Z,68.3
2022-11-23T10:16:00.610Z,69.3
2022-11-23T10:17:15.858Z,67.9
2022-11-23T10:18:32.089Z,65
2022-11-23T10:19:48.340Z,60.9
2022-11-23T10:21:04.565Z,61
2022-11-23T10:22:20.812Z,58
2022-11-23T10:23:37.050Z,56.1
2022-11-23T10:24:53.283Z,54.5
2022-11-23T10:26:09.528Z,54
2022-11-23T10:27:25.769Z,54.4
2022-11-23T10:28:42.016Z,53
2022-11-23T10:29:58.258Z,52.7
2022-11-23T10:31:14.495Z,52.6
2022-11-23T10:32:30.727Z,49.2
2022-11-23T10:33:45.990Z,50.5
2022-11-23T10:35:02.224Z,51
2022-11-23T10:36:18.471Z,51.7
2022-11-23T10:37:34.701Z,53.6
2022-11-23T10:38:50.946Z,50.8
2022-11-23T10:40:07.186Z,50.2
2022-11-23T10:41:23.423Z,50
2022-11-23T10:42:38.698Z,49
2022-11-23T10:43:53.958Z,49.2
2022-11-23T10:45:10.185Z,50
2022-11-23T10:46:26.424Z,52.5
2022-11-23T10:47:41.691Z,50.3
2022-11-23T10:48:56.948Z,50.1
2022-11-23T10:50:13.186Z,51.3
2022-11-23T10:51:29.427Z,52.6
2022-11-23T10:52:45.677Z,50.1
2022-11-23T10:54:01.917Z,49.4
2022-11-23T10:55:18.153Z,50.1
2022-11-23T10:56:34.404Z,51.4
2022-11-23T10:57:50.630Z,50.7
2022-11-23T10:59:06.866Z,50.9
2022-11-23T11:00:23.118Z,51.2
2022-11-23T11:01:39.357Z,51
2022-11-23T11:02:55.591Z,49.6
2022-11-23T11:04:11.827Z,50.4
2022-11-23T11:05:27.085Z,52.1
2022-11-23T11:06:43.332Z,51
2022-11-23T11:07:59.572Z,51.8
2022-11-23T11:09:15.809Z,52.6
2022-11-23T11:10:32.049Z,50.3
2022-11-23T11:11:48.280Z,50.8
2022-11-23T11:13:04.536Z,50.8
2022-11-23T11:14:19.795Z,53.3
2022-11-23T11:15:35.045Z,53.8
2022-11-23T11:16:51.285Z,57
2022-11-23T11:18:07.536Z,58.2
2022-11-23T11:19:23.765Z,57.3
2022-11-23T11:20:40.015Z,57.7
2022-11-23T11:21:56.246Z,56.1
2022-11-23T11:23:12.495Z,55.5
2022-11-23T11:24:28.722Z,56.3
2022-11-23T11:25:44.963Z,56.2
2022-11-23T11:27:01.208Z,55.8
2022-11-23T11:28:17.453Z,55.1
2022-11-23T11:29:33.698Z,55.3
2022-11-23T11:30:49.932Z,54.5
2022-11-23T11:32:05.191Z,55.3
2022-11-23T11:33:21.426Z,54.9
2022-11-23T11:34:37.671Z,56.4
2022-11-23T11:35:53.909Z,56.7
2022-11-23T11:37:10.146Z,56.8
2022-11-23T11:38:26.390Z,57.4
2022-11-23T11:39:42.640Z,58.2
2022-11-23T11:40:58.864Z,59.1
2022-11-23T11:42:14.129Z,60.6
2022-11-23T11:43:29.385Z,62.9
2022-11-23T11:44:45.635Z,64.8
2022-11-23T11:46:01.878Z,66.2
2022-11-23T11:47:18.117Z,66.6
2022-11-23T11:48:34.341Z,67.5
2022-11-23T11:49:50.596Z,67.8
2022-11-23T11:51:06.821Z,67.2
2022-11-23T11:52:23.069Z,67
2022-11-23T11:53:39.299Z,68
2022-11-23T11:54:55.538Z,69
2022-11-23T11:56:11.797Z,69.3
2022-11-23T11:57:28.038Z,69
2022-11-23T11:58:43.285Z,68.8
2022-11-23T11:59:59.520Z,69
2022-11-23T12:01:15.773Z,69
2022-11-23T12:02:31.998Z,69.3
2022-11-23T12:03:48.253Z,69.2
2022-11-23T12:05:04.485Z,70.1
2022-11-23T12:06:20.727Z,69.4
2022-11-23T12:07:36.959Z,69.4
2022-11-23T12:08:52.220Z,70
2022-11-23T12:10:07.499Z,70.5
2022-11-23T12:11:23.731Z,70.9
2022-11-23T12:12:39.967Z,70.8
2022-11-23T12:13:56.208Z,70.8
2022-11-23T12:15:12.437Z,70.6
2022-11-23T12:16:28.686Z,71.9
2022-11-23T12:17:44.923Z,72.5
2022-11-23T12:19:01.170Z,72.2
2022-11-23T12:20:17.420Z,73
2022-11-23T12:21:33.639Z,72.8
2022-11-23T12:22:49.883Z,72.8
2022-11-23T12:24:06.131Z,73.2
2022-11-23T12:25:22.359Z,73.9
2022-11-23T12:26:37.628Z,74.5
2022-11-23T12:27:53.864Z,74.1
2022-11-23T12:29:10.105Z,74.3
2022-11-23T12:30:26.342Z,74
2022-11-23T12:31:42.588Z,74.1
2022-11-23T12:32:58.821Z,73.8
2022-11-23T12:34:15.059Z,73.5
2022-11-23T12:35:30.332Z,74.1
2022-11-23T12:36:45.571Z,73.8
2022-11-23T12:38:01.814Z,74.7
2022-11-23T12:39:18.058Z,74.5
2022-11-23T12:40:34.295Z,75.1
2022-11-23T12:41:50.545Z,74.9
2022-11-23T12:43:06.773Z,75.3
2022-11-23T12:44:23.029Z,75.5
2022-11-23T12:45:39.269Z,75.2
2022-11-23T12:46:55.490Z,75.3
2022-11-23T12:48:11.736Z,75.2
2022-11-23T12:49:27.985Z,75.2
2022-11-23T12:50:44.215Z,75.6
2022-11-23T12:52:00.469Z,75.5
2022-11-23T12:53:15.720Z,75.4
2022-11-23T12:54:31.960Z,75.8
2022-11-23T12:55:48.201Z,75.9
2022-11-23T12:57:04.427Z,75.8
2022-11-23T12:58:20.683Z,76.1
2022-11-23T12:59:36.914Z,75.8
2022-11-23T13:00:53.155Z,75.4
2022-11-23T13:02:09.395Z,75.2
2022-11-23T13:03:25.642Z,75.4
2022-11-23T13:04:41.887Z,75.6
2022-11-23T13:05:58.127Z,75.5
2022-11-23T13:07:14.352Z,75.7
2022-11-23T13:08:30.608Z,75.8
2022-11-23T13:09:45.846Z,75.4
2022-11-23T13:11:02.094Z,76
2022-11-23T13:12:18.337Z,76.1
2022-11-23T13:13:34.577Z,76
2022-11-23T13:14:50.817Z,75.9
2022-11-23T13:16:07.071Z,75.9
2022-11-23T13:17:23.305Z,76.5
2022-11-23T13:18:39.545Z,76.8
2022-11-23T13:19:55.778Z,76.9
2022-11-23T13:21:12.021Z,76.6
2022-11-23T13:22:28.260Z,76.8
2022-11-23T13:23:44.497Z,76.8
2022-11-23T13:25:00.728Z,77
2022-11-23T13:26:15.994Z,77.2
2022-11-23T13:27:32.231Z,77.7
2022-11-23T13:28:48.473Z,77.9
2022-11-23T13:30:04.714Z,77.8
2022-11-23T13:31:20.961Z,77.9
2022-11-23T13:32:37.186Z,78
2022-11-23T13:33:53.434Z,78.2
2022-11-23T13:35:09.676Z,78
2022-11-23T13:36:25.911Z,78
2022-11-23T13:37:42.161Z,77.9
2022-11-23T13:38:58.387Z,78.2
2022-11-23T13:40:14.641Z,78.3
2022-11-23T13:41:30.868Z,78.3
2022-11-23T13:42:46.141Z,78.2
2022-11-23T13:44:02.381Z,78.2
2022-11-23T13:45:18.610Z,78.3
2022-11-23T13:46:34.844Z,78.2
2022-11-23T13:47:51.096Z,78.2
2022-11-23T13:49:07.346Z,78
2022-11-23T13:50:23.572Z,78.3
2022-11-23T13:51:39.806Z,78
2022-11-23T13:52:56.060Z,78.2
2022-11-23T13:54:12.291Z,78
2022-11-23T13:55:28.541Z,78
2022-11-23T13:56:44.775Z,78.2
2022-11-23T13:58:01.019Z,78.2
2022-11-23T13:59:16.264Z,78.3
2022-11-23T14:00:32.525Z,78.3
2022-11-23T14:01:48.750Z,78.6
2022-11-23T14:03:04.988Z,78.8
2022-11-23T14:04:21.244Z,79
2022-11-23T14:05:37.467Z,78.8
2022-11-23T14:06:53.719Z,79.1
2022-11-23T14:08:09.959Z,79.3
2022-11-23T14:09:26.193Z,79.3
2022-11-23T14:10:42.447Z,79.3
2022-11-23T14:11:58.675Z,79.3
2022-11-23T14:13:14.908Z,79.5
2022-11-23T14:14:31.154Z,79.5
2022-11-23T14:15:46.414Z,79.9
2022-11-23T14:17:02.649Z,80
2022-11-23T14:18:18.893Z,80.1
2022-11-23T14:19:35.123Z,80.3
2022-11-23T14:20:51.378Z,80.3
2022-11-23T14:22:07.617Z,80.6
2022-11-23T14:23:23.857Z,80.7
2022-11-23T14:24:40.085Z,80.9
2022-11-23T14:25:56.333Z,81
2022-11-23T14:27:12.574Z,81.1
2022-11-23T14:28:28.824Z,81.2
2022-11-23T14:29:45.056Z,81.5
2022-11-23T14:31:01.285Z,81.5
2022-11-23T14:32:16.553Z,81.5
2022-11-23T14:33:32.786Z,82
2022-11-23T14:34:49.031Z,81.8
2022-11-23T14:36:05.270Z,81.9
2022-11-23T14:37:21.502Z,82
2022-11-23T14:38:37.747Z,81.9
2022-11-23T14:39:53.991Z,82.2
2022-11-23T14:41:10.240Z,82.2
2022-11-23T14:42:26.469Z,82.2
2022-11-23T14:43:42.709Z,82.3
2022-11-23T14:44:58.964Z,82.4
2022-11-23T14:46:15.191Z,82.4
2022-11-23T14:47:31.433Z,82.4
2022-11-23T14:48:46.709Z,82.4
2022-11-23T14:50:02.942Z,82.4
2022-11-23T14:51:19.170Z,82.4
2022-11-23T14:52:35.425Z,82.5
2022-11-23T14:53:51.645Z,82.5
2022-11-23T14:55:07.902Z,82.5
2022-11-23T14:56:24.135Z,82.7
2022-11-23T14:57:40.377Z,82.8
2022-11-23T14:58:56.619Z,82.8
2022-11-23T15:00:12.848Z,82.9
2022-11-23T15:01:29.088Z,82.8
2022-11-23T15:02:45.354Z,82.9
2022-11-23T15:04:01.576Z,83
2022-11-23T15:05:16.827Z,83.1
2022-11-23T15:06:33.090Z,83.2
2022-11-23T15:07:49.309Z,83.4
2022-11-23T15:09:05.554Z,83.5
2022-11-23T15:10:21.797Z,83.5
2022-11-23T15:11:38.027Z,83.7
2022-11-23T15:12:54.275Z,83.7
2022-11-23T15:14:10.507Z,83.8
2022-11-23T15:15:26.758Z,83.8
2022-11-23T15:16:43.006Z,84.1
2022-11-23T15:17:59.242Z,84.2
2022-11-23T15:19:15.470Z,84.1
2022-11-23T15:20:31.718Z,84
2022-11-23T15:21:46.977Z,84
2022-11-23T15:23:03.232Z,84
2022-11-23T15:24:19.453Z,84
2022-11-23T15:25:35.699Z,84.2
2022-11-23T15:26:51.939Z,84.2
2022-11-23T15:28:08.168Z,84.1
2022-11-23T15:29:24.431Z,84.5
2022-11-23T15:30:40.655Z,84.5
2022-11-23T15:31:56.896Z,84.5
2022-11-23T15:33:13.129Z,84.6
2022-11-23T15:34:29.384Z,84.7
2022-11-23T15:35:45.610Z,84.9
2022-11-23T15:37:01.871Z,85.1
2022-11-23T15:38:18.119Z,85.2
2022-11-23T15:39:33.352Z,85.4
2022-11-23T15:40:49.598Z,85.2
2022-11-23T15:42:05.903Z,85.2
2022-11-23T15:43:22.124Z,85.1
2022-11-23T15:44:38.377Z,85.1
2022-11-23T15:45:54.621Z,85.2
2022-11-23T15:47:10.861Z,85.2
2022-11-23T15:48:27.139Z,85.2
2022-11-23T15:49:43.452Z,85.1
2022-11-23T15:50:59.728Z,85.3
2022-11-23T15:52:16.033Z,85.4
2022-11-23T15:53:32.317Z,85.4
2022-11-23T15:54:48.623Z,85.5
2022-11-23T15:56:03.928Z,85.6
2022-11-23T15:57:20.221Z,85.8
2022-11-23T15:58:36.519Z,85.8
2022-11-23T15:59:52.816Z,86
2022-11-23T16:01:09.115Z,86.3
2022-11-23T16:02:25.398Z,86.1
2022-11-23T16:03:41.699Z,86
2022-11-23T16:04:57.000Z,86.1
2022-11-23T16:06:14.280Z,86.2
2022-11-23T16:07:30.573Z,86.3
2022-11-23T16:08:46.868Z,86.3
2022-11-23T16:10:03.179Z,86.3
2022-11-23T16:11:19.467Z,86.5
2022-11-23T16:12:34.770Z,86.5
2022-11-23T16:13:50.090Z,86.8
2022-11-23T16:15:06.387Z,86.7
2022-11-23T16:16:22.683Z,86.7
2022-11-23T16:17:38.966Z,86.8
2022-11-23T16:18:55.266Z,86.9
2022-11-23T16:20:11.573Z,87
2022-11-23T16:21:27.851Z,86.9
2022-11-23T16:22:44.155Z,87.1
2022-11-23T16:24:00.441Z,87.2
2022-11-23T16:25:16.738Z,87.3
2022-11-23T16:26:33.028Z,87.3
2022-11-23T16:27:49.322Z,87.3
2022-11-23T16:29:05.621Z,87.6
2022-11-23T16:30:20.943Z,87.8
2022-11-23T16:31:37.221Z,88
2022-11-23T16:32:53.523Z,88.2
2022-11-23T16:34:09.823Z,88.3
2022-11-23T16:35:26.114Z,88.3
2022-11-23T16:36:42.402Z,88.4
2022-11-23T16:37:58.695Z,88.5
2022-11-23T16:39:14.993Z,88.6
2022-11-23T16:40:31.287Z,88.7
2022-11-23T16:41:47.586Z,88.9
2022-11-23T16:43:03.876Z,89
2022-11-23T16:44:20.178Z,88.9
2022-11-23T16:45:36.465Z,88.9
2022-11-23T16:46:51.773Z,89
2022-11-23T16:48:08.081Z,89.1
2022-11-23T16:49:24.366Z,89.1
2022-11-23T16:50:40.660Z,89.2
2022-11-23T16:51:56.955Z,89.2
2022-11-23T16:53:13.249Z,89.2
2022-11-23T16:54:29.553Z,89.2
2022-11-23T16:55:45.842Z,89.1
2022-11-23T16:57:02.134Z,89
2022-11-23T16:58:18.437Z,89
2022-11-23T16:59:34.735Z,89.2
2022-11-23T17:00:51.025Z,89.2
2022-11-23T17:02:07.317Z,89.3
2022-11-23T17:03:22.618Z,89.4
2022-11-23T17:04:38.930Z,89.4
2022-11-23T17:05:55.210Z,89.6
2022-11-23T17:07:11.503Z,89.8
2022-11-23T17:08:27.802Z,89.8